createdAt,value
2023-02-08T00:00:44.591Z,2.15
2023-02-08T00:03:41.622Z,2.90
2023-02-08T00:06:38.520Z,3.25
2023-02-08T00:09:35.370Z,2.95
2023-02-08T00:12:33.126Z,2.88
2023-02-08T00:15:29.980Z,3.45
2023-02-08T00:18:26.888Z,3.42
2023-02-08T00:21:23.748Z,2.75
2023-02-08T00:24:20.549Z,2.65
2023-02-08T00:27:18.163Z,2.60
2023-02-08T00:30:15.023Z,2.00
2023-02-08T00:33:12.836Z,2.70
2023-02-08T00:36:11.760Z,2.50
2023-02-08T00:39:08.570Z,2.55
2023-02-08T00:42:05.501Z,2.45
2023-02-08T00:45:02.375Z,2.38
2023-02-08T00:47:59.257Z,2.13
2023-02-08T00:51:01.349Z,1.75
2023-02-08T00:53:58.219Z,2.00
2023-02-08T00:56:55.073Z,2.15
2023-02-08T00:59:51.928Z,2.03
2023-02-08T01:02:48.794Z,2.40
2023-02-08T01:05:45.589Z,2.22
2023-02-08T01:08:42.801Z,2.20
2023-02-08T01:11:39.612Z,2.17
2023-02-08T01:14:39.224Z,1.58
2023-02-08T01:17:36.133Z,2.10
2023-02-08T01:20:36.453Z,1.63
2023-02-08T01:26:31.030Z,1.80
2023-02-08T01:29:27.866Z,1.35
2023-02-08T01:32:24.694Z,1.65
2023-02-08T01:35:21.563Z,1.83
2023-02-08T01:38:19.850Z,1.38
2023-02-08T01:41:18.866Z,1.60
2023-02-08T01:44:15.568Z,1.10
2023-02-08T01:47:12.569Z,1.30
2023-02-08T01:50:09.855Z,1.45
2023-02-08T01:53:06.957Z,1.60
2023-02-08T01:56:10.356Z,1.00
2023-02-08T01:59:18.850Z,1.40
2023-02-08T02:02:19.571Z,1.70
2023-02-08T02:05:17.977Z,1.98
2023-02-08T02:08:14.935Z,1.50
2023-02-08T02:11:12.885Z,1.55
2023-02-08T02:14:10.369Z,1.27
2023-02-08T02:17:07.426Z,1.48
2023-02-08T02:20:18.228Z,1.70
2023-02-08T02:23:47.002Z,1.67
2023-02-08T02:27:05.800Z,1.60
2023-02-08T02:30:47.990Z,1.42
2023-02-08T02:34:03.589Z,2.10
2023-02-08T02:37:34.333Z,1.67
2023-02-08T02:41:00.935Z,1.60
2023-02-08T02:44:00.021Z,1.63
2023-02-08T02:47:41.202Z,1.73
2023-02-08T02:51:03.032Z,1.90
2023-02-08T02:54:13.772Z,1.90
2023-02-08T02:57:16.206Z,2.08
2023-02-08T03:00:22.753Z,2.28
2023-02-08T03:03:27.359Z,2.13
2023-02-08T03:07:02.484Z,1.88
2023-02-08T03:10:24.415Z,1.92
2023-02-08T03:13:30.870Z,1.98
2023-02-08T03:17:01.735Z,1.70
2023-02-08T03:20:09.208Z,1.98
2023-02-08T03:23:30.685Z,1.52
2023-02-08T03:26:50.416Z,1.52
2023-02-08T03:30:26.100Z,2.08
2023-02-08T03:33:50.030Z,2.30
2023-02-08T03:37:01.105Z,2.47
2023-02-08T03:40:35.213Z,2.67
2023-02-08T03:43:54.274Z,2.30
2023-02-08T03:46:57.638Z,3.70
2023-02-08T03:49:59.437Z,3.08
2023-02-08T03:52:57.111Z,4.10
2023-02-08T03:56:01.942Z,4.22
2023-02-08T03:59:03.505Z,2.67
2023-02-08T04:02:04.052Z,3.33
2023-02-08T04:05:01.889Z,2.92
2023-02-08T04:07:58.797Z,2.70
2023-02-08T04:10:55.636Z,3.08
2023-02-08T04:13:52.481Z,2.78
2023-02-08T04:16:49.304Z,2.28
2023-02-08T04:19:46.117Z,2.50
2023-02-08T04:22:42.945Z,2.28
2023-02-08T04:25:39.920Z,2.30
2023-02-08T04:28:36.816Z,2.33
2023-02-08T04:31:33.786Z,1.95
2023-02-08T04:34:30.673Z,2.05
2023-02-08T04:37:28.071Z,2.10
2023-02-08T04:40:24.891Z,2.10
2023-02-08T04:43:21.747Z,2.53
2023-02-08T04:46:18.609Z,1.98
2023-02-08T04:49:15.740Z,2.20
2023-02-08T04:52:12.561Z,2.30
2023-02-08T04:55:09.417Z,2.33
2023-02-08T04:58:06.258Z,2.22
2023-02-08T05:01:07.670Z,1.98
2023-02-08T05:04:04.809Z,2.72
2023-02-08T05:07:01.806Z,2.47
2023-02-08T05:09:58.637Z,2.10
2023-02-08T05:12:55.514Z,2.70
2023-02-08T05:15:52.515Z,2.58
2023-02-08T05:18:49.397Z,2.83
2023-02-08T05:21:46.209Z,3.08
2023-02-08T05:24:43.038Z,2.38
2023-02-08T05:27:40.907Z,3.13
2023-02-08T05:30:38.993Z,3.03
2023-02-08T05:33:35.920Z,3.22
2023-02-08T05:36:32.745Z,3.22
2023-02-08T05:39:29.561Z,3.72
2023-02-08T05:42:27.078Z,3.53
2023-02-08T05:45:23.972Z,3.50
2023-02-08T05:48:21.028Z,3.05
2023-02-08T05:51:17.885Z,3.53
2023-02-08T05:54:14.693Z,3.60
2023-02-08T05:57:11.530Z,3.03
2023-02-08T06:00:09.621Z,3.80
2023-02-08T06:03:06.708Z,3.65
2023-02-08T06:06:03.821Z,4.85
2023-02-08T06:09:00.702Z,5.88
2023-02-08T06:11:57.523Z,5.18
2023-02-08T06:14:54.332Z,5.70
2023-02-08T06:17:51.425Z,6.80
2023-02-08T06:20:48.415Z,7.18
2023-02-08T06:23:45.276Z,4.95
2023-02-08T06:26:42.714Z,4.47
2023-02-08T06:29:39.560Z,5.20
2023-02-08T06:32:36.384Z,4.07
2023-02-08T06:35:33.322Z,3.45
2023-02-08T06:38:30.129Z,3.42
2023-02-08T06:41:27.235Z,3.97
2023-02-08T06:44:24.484Z,3.70
2023-02-08T06:47:25.551Z,3.97
2023-02-08T06:50:24.138Z,3.28
2023-02-08T06:53:21.623Z,6.65
2023-02-08T06:56:19.077Z,6.43
2023-02-08T06:59:15.897Z,4.47
2023-02-08T07:02:16.047Z,4.47
2023-02-08T07:05:14.294Z,4.32
2023-02-08T07:08:11.124Z,3.78
2023-02-08T07:11:15.070Z,4.78
2023-02-08T07:14:15.832Z,4.57
2023-02-08T07:17:13.037Z,4.90
2023-02-08T07:20:11.519Z,5.18
2023-02-08T07:23:08.318Z,3.70
2023-02-08T07:26:11.940Z,5.68
2023-02-08T07:29:08.782Z,6.85
2023-02-08T07:32:07.596Z,9.30
2023-02-08T07:35:04.731Z,7.32
2023-02-08T07:38:01.569Z,7.63
2023-02-08T07:41:06.740Z,6.40
2023-02-08T07:44:03.722Z,7.45
2023-02-08T07:47:02.016Z,6.85
2023-02-08T07:49:58.854Z,7.07
2023-02-08T07:52:55.676Z,6.40
2023-02-08T07:55:52.496Z,8.18
2023-02-08T07:58:49.314Z,14.77
2023-02-08T08:01:46.160Z,10.75
2023-02-08T08:04:43.216Z,7.68
2023-02-08T08:07:40.022Z,6.90
2023-02-08T08:10:37.345Z,4.90
2023-02-08T08:13:34.185Z,6.55
2023-02-08T08:16:31.055Z,14.00
2023-02-08T08:19:28.402Z,22.45
2023-02-08T08:22:25.225Z,19.48
2023-02-08T08:25:22.087Z,12.57
2023-02-08T08:28:19.040Z,12.55
2023-02-08T08:31:20.998Z,12.90
2023-02-08T08:34:17.968Z,8.02
2023-02-08T08:37:14.774Z,9.07
2023-02-08T08:40:12.055Z,7.55
2023-02-08T08:43:08.970Z,8.98
2023-02-08T08:46:08.100Z,10.43
2023-02-08T08:49:04.954Z,8.93
2023-02-08T08:52:01.780Z,7.82
2023-02-08T08:54:58.602Z,7.35
2023-02-08T08:57:55.508Z,7.50
2023-02-08T09:00:53.983Z,5.25
2023-02-08T09:03:50.821Z,4.22
2023-02-08T09:06:47.637Z,4.60
2023-02-08T09:09:47.953Z,4.03
2023-02-08T09:15:42.124Z,3.42
2023-02-08T09:18:39.055Z,3.60
2023-02-08T09:21:36.798Z,3.30
2023-02-08T09:24:34.815Z,3.05
2023-02-08T09:27:31.644Z,2.50
2023-02-08T09:30:28.466Z,2.42
2023-02-08T09:33:26.772Z,2.70
2023-02-08T09:36:27.176Z,3.03
2023-02-08T09:42:43.572Z,2.33
2023-02-08T09:46:00.168Z,2.45
2023-02-08T09:49:02.902Z,2.75
2023-02-08T09:52:05.984Z,3.28
2023-02-08T09:55:34.619Z,2.42
2023-02-08T09:58:43.041Z,3.20
2023-02-08T10:01:39.889Z,3.60
2023-02-08T10:05:05.128Z,3.58
2023-02-08T10:08:02.259Z,2.40
2023-02-08T10:11:23.523Z,2.90
2023-02-08T10:14:49.738Z,2.70
2023-02-08T10:18:29.036Z,2.97
2023-02-08T10:21:59.406Z,2.53
2023-02-08T10:25:08.376Z,3.20
2023-02-08T10:28:42.752Z,2.75
2023-02-08T10:32:36.154Z,2.17
2023-02-08T10:35:44.943Z,2.45
2023-02-08T10:38:46.853Z,2.40
2023-02-08T10:41:46.035Z,2.22
2023-02-08T10:45:22.612Z,2.53
2023-02-08T10:48:52.731Z,2.83
2023-02-08T10:51:49.932Z,3.22
2023-02-08T10:54:46.806Z,2.85
2023-02-08T10:57:47.082Z,2.83
2023-02-08T11:00:45.817Z,3.00
2023-02-08T11:04:10.259Z,2.53
2023-02-08T11:07:21.416Z,2.80
2023-02-08T11:10:25.308Z,2.75
2023-02-08T11:13:24.453Z,3.15
2023-02-08T11:16:27.012Z,3.20
2023-02-08T11:19:35.598Z,3.10
2023-02-08T11:22:34.411Z,2.42
2023-02-08T11:25:37.081Z,2.78
2023-02-08T11:28:33.910Z,3.30
2023-02-08T11:31:32.157Z,3.00
2023-02-08T11:34:39.184Z,2.80
2023-02-08T11:37:36.085Z,3.15
2023-02-08T11:40:43.010Z,2.67
2023-02-08T11:43:40.272Z,3.17
2023-02-08T11:46:39.466Z,4.30
2023-02-08T11:49:41.127Z,2.42
2023-02-08T11:52:42.375Z,2.50
2023-02-08T11:55:40.600Z,4.75
2023-02-08T11:58:37.563Z,3.60
2023-02-08T12:01:40.971Z,2.10
2023-02-08T12:04:37.770Z,1.80
2023-02-08T12:08:19.772Z,2.10
2023-02-08T12:11:46.280Z,1.45
2023-02-08T12:15:16.945Z,1.63
2023-02-08T12:18:36.763Z,1.77
2023-02-08T12:21:46.352Z,1.70
2023-02-08T12:25:32.890Z,1.80
2023-02-08T12:28:57.539Z,2.55
2023-02-08T12:32:36.304Z,2.30
2023-02-08T12:36:03.684Z,2.30
2023-02-08T12:39:53.316Z,2.33
2023-02-08T12:43:48.573Z,2.65
2023-02-08T12:47:17.718Z,2.45
2023-02-08T12:51:00.346Z,2.78
2023-02-08T12:54:10.263Z,2.15
2023-02-08T12:57:11.929Z,2.27
2023-02-08T13:00:32.337Z,2.70
2023-02-08T13:04:03.841Z,2.28
2023-02-08T13:07:10.924Z,2.78
2023-02-08T13:10:42.428Z,2.22
2023-02-08T13:13:41.487Z,2.40
2023-02-08T13:16:46.367Z,1.83
2023-02-08T13:20:04.067Z,2.10
2023-02-08T13:23:12.634Z,2.10
2023-02-08T13:26:27.671Z,1.92
2023-02-08T13:29:28.155Z,2.17
2023-02-08T13:32:45.286Z,2.20
2023-02-08T13:35:42.467Z,1.90
2023-02-08T13:38:44.598Z,2.08
2023-02-08T13:41:54.468Z,2.15
2023-02-08T13:44:55.482Z,2.50
2023-02-08T13:48:00.429Z,2.47
2023-02-08T13:50:57.512Z,2.13
2023-02-08T13:53:57.302Z,2.42
2023-02-08T13:56:55.380Z,3.53
2023-02-08T14:00:25.892Z,2.85
2023-02-08T14:03:32.290Z,2.65
2023-02-08T14:06:30.972Z,2.70
2023-02-08T14:10:02.759Z,3.58
2023-02-08T14:13:24.131Z,2.70
2023-02-08T14:16:40.501Z,2.58
2023-02-08T14:19:42.483Z,3.63
2023-02-08T14:22:48.201Z,3.30
2023-02-08T14:25:48.638Z,2.85
2023-02-08T14:28:46.736Z,2.70
2023-02-08T14:31:45.530Z,2.33
2023-02-08T14:34:44.342Z,2.20
2023-02-08T14:37:45.587Z,2.58
2023-02-08T14:40:51.000Z,2.20
2023-02-08T14:43:48.758Z,2.17
2023-02-08T14:46:45.696Z,2.05
2023-02-08T14:49:44.982Z,2.10
2023-02-08T14:52:52.503Z,8.23
2023-02-08T14:55:59.804Z,2.15
2023-02-08T14:59:24.094Z,1.98
2023-02-08T15:02:26.168Z,21.67
2023-02-08T15:05:41.768Z,1.92
2023-02-08T15:08:38.820Z,1.90
2023-02-08T15:11:35.940Z,1.65
2023-02-08T15:14:37.277Z,13.52
2023-02-08T15:17:45.204Z,13.63
2023-02-08T15:20:44.135Z,5.15
2023-02-08T15:23:41.187Z,3.60
2023-02-08T15:26:43.879Z,4.97
2023-02-08T15:29:44.859Z,3.75
2023-02-08T15:32:41.791Z,6.10
2023-02-08T15:35:38.676Z,19.48
2023-02-08T15:38:38.799Z,7.20
2023-02-08T15:41:35.864Z,6.40
2023-02-08T15:44:34.930Z,6.75
2023-02-08T15:47:37.874Z,14.02
2023-02-08T15:50:35.646Z,2.47
2023-02-08T15:53:32.675Z,5.80
2023-02-08T15:56:38.683Z,2.15
2023-02-08T15:59:40.255Z,6.30
2023-02-08T16:02:37.287Z,57.03
2023-02-08T16:05:35.699Z,11.90
2023-02-08T16:08:36.084Z,9.35
2023-02-08T16:11:36.816Z,21.58
2023-02-08T16:14:47.375Z,10.07
2023-02-08T16:17:48.942Z,20.88
2023-02-08T16:20:56.416Z,36.10
2023-02-08T16:24:28.695Z,17.40
2023-02-08T16:27:31.099Z,14.40
2023-02-08T16:30:28.174Z,41.80
2023-02-08T16:33:26.062Z,12.25
2023-02-08T16:36:25.350Z,26.63
2023-02-08T16:39:51.812Z,17.50
2023-02-08T16:42:48.678Z,17.15
2023-02-08T16:45:45.593Z,13.70
2023-02-08T16:48:56.387Z,10.27
2023-02-08T16:52:00.177Z,14.35
2023-02-08T16:54:58.722Z,16.33
2023-02-08T16:57:58.266Z,9.27
2023-02-08T17:00:55.199Z,9.82
2023-02-08T17:03:53.074Z,15.52
2023-02-08T17:06:50.510Z,16.67
2023-02-08T17:09:47.377Z,10.68
2023-02-08T17:12:44.213Z,19.80
2023-02-08T17:15:41.602Z,21.98
2023-02-08T17:18:38.639Z,23.70
2023-02-08T17:21:35.466Z,14.50
2023-02-08T17:24:32.278Z,9.50
2023-02-08T17:27:29.150Z,10.50
2023-02-08T17:30:41.976Z,5.57
2023-02-08T17:33:40.136Z,5.60
2023-02-08T17:36:37.460Z,3.45
2023-02-08T17:39:34.435Z,5.00
2023-02-08T17:42:32.452Z,4.75
2023-02-08T17:45:29.760Z,4.95
2023-02-08T17:48:27.133Z,7.15
2023-02-08T17:51:25.136Z,8.02
2023-02-08T17:54:22.021Z,7.22
2023-02-08T18:00:23.837Z,10.10
2023-02-08T18:03:20.739Z,7.93
2023-02-08T18:06:18.696Z,8.95
2023-02-08T18:09:15.792Z,5.00
2023-02-08T18:12:13.207Z,11.43
2023-02-08T18:15:16.110Z,33.63
2023-02-08T18:18:13.044Z,45.63
2023-02-08T18:21:19.717Z,8.35
2023-02-08T18:24:16.542Z,4.75
2023-02-08T18:27:13.401Z,16.73
2023-02-08T18:30:12.152Z,19.83
2023-02-08T18:33:10.670Z,5.20
2023-02-08T18:36:11.291Z,6.97
2023-02-08T18:39:08.181Z,8.27
2023-02-08T18:42:05.147Z,7.20
2023-02-08T18:45:02.007Z,10.45
2023-02-08T18:47:59.594Z,15.23
2023-02-08T18:50:58.262Z,10.25
2023-02-08T18:53:56.112Z,7.68
2023-02-08T18:56:56.069Z,9.65
2023-02-08T18:59:54.201Z,8.48
2023-02-08T19:02:51.196Z,19.35
2023-02-08T19:05:48.934Z,12.25
2023-02-08T19:08:46.522Z,13.00
2023-02-08T19:11:44.945Z,10.77
2023-02-08T19:14:43.291Z,9.60
2023-02-08T19:17:40.135Z,13.73
2023-02-08T19:20:38.613Z,14.80
2023-02-08T19:23:35.879Z,10.20
2023-02-08T19:26:39.845Z,9.68
2023-02-08T19:29:36.699Z,8.63
2023-02-08T19:32:33.577Z,15.35
2023-02-08T19:35:30.444Z,18.55
2023-02-08T19:38:27.367Z,21.42
2023-02-08T19:41:37.643Z,12.20
2023-02-08T19:44:34.559Z,15.63
2023-02-08T19:47:50.063Z,12.75
2023-02-08T19:50:59.682Z,10.52
2023-02-08T19:54:01.237Z,8.35
2023-02-08T19:56:58.135Z,10.85
2023-02-08T19:59:55.013Z,12.15
2023-02-08T20:02:52.270Z,12.18
2023-02-08T20:05:50.394Z,16.00
2023-02-08T20:08:49.162Z,11.48
2023-02-08T20:12:01.214Z,13.00
2023-02-08T20:14:58.114Z,13.38
2023-02-08T20:17:54.950Z,12.93
2023-02-08T20:21:03.321Z,11.52
2023-02-08T20:24:01.557Z,13.32
2023-02-08T20:26:58.389Z,11.88
2023-02-08T20:29:56.288Z,14.30
2023-02-08T20:32:57.415Z,16.15
2023-02-08T20:35:55.282Z,15.90
2023-02-08T20:38:54.541Z,16.75
2023-02-08T20:41:51.450Z,15.43
2023-02-08T20:44:48.356Z,14.02
2023-02-08T20:47:46.965Z,14.60
2023-02-08T20:50:44.179Z,14.80
2023-02-08T20:53:42.995Z,14.00
2023-02-08T20:56:40.166Z,14.43
2023-02-08T20:59:37.842Z,10.40
2023-02-08T21:02:34.736Z,12.63
2023-02-08T21:05:31.615Z,15.32
2023-02-08T21:08:28.449Z,14.77
2023-02-08T21:11:29.368Z,13.55
2023-02-08T21:14:26.469Z,12.70
2023-02-08T21:17:23.347Z,12.23
2023-02-08T21:20:20.333Z,11.60
2023-02-08T21:23:17.147Z,12.40
2023-02-08T21:26:17.881Z,11.75
2023-02-08T21:29:14.715Z,13.95
2023-02-08T21:32:11.550Z,14.10
2023-02-08T21:35:08.460Z,13.88
2023-02-08T21:38:05.957Z,15.38
2023-02-08T21:41:35.980Z,20.08
2023-02-08T21:44:35.096Z,11.35
2023-02-08T21:47:31.928Z,11.82
2023-02-08T21:50:47.245Z,13.65
2023-02-08T21:54:02.900Z,13.63
2023-02-08T21:57:01.876Z,15.27
2023-02-08T22:00:01.290Z,14.93
2023-02-08T22:02:58.263Z,15.30
2023-02-08T22:05:55.120Z,13.80
2023-02-08T22:08:51.958Z,17.70
2023-02-08T22:11:48.978Z,17.70
2023-02-08T22:14:46.122Z,18.70
2023-02-08T22:17:43.565Z,17.42
2023-02-08T22:20:40.394Z,17.08
2023-02-08T22:23:37.253Z,20.42
2023-02-08T22:26:34.372Z,15.73
2023-02-08T22:29:31.258Z,18.77
2023-02-08T22:32:28.226Z,14.93
2023-02-08T22:35:25.105Z,15.30
2023-02-08T22:38:23.415Z,16.08
2023-02-08T22:41:20.553Z,16.63
2023-02-08T22:44:18.036Z,17.80
2023-02-08T22:47:14.939Z,16.40
2023-02-08T22:50:11.783Z,16.42
2023-02-08T22:53:08.669Z,14.82
2023-02-08T22:56:06.363Z,15.35
2023-02-08T22:59:03.179Z,15.48
2023-02-08T23:02:01.593Z,16.88
2023-02-08T23:04:58.534Z,20.98
2023-02-08T23:07:55.362Z,15.50
2023-02-08T23:11:03.682Z,17.15
2023-02-08T23:14:00.717Z,16.65
2023-02-08T23:16:57.545Z,16.85
2023-02-08T23:19:54.384Z,13.63
2023-02-08T23:22:51.248Z,13.52
2023-02-08T23:25:48.429Z,12.63
2023-02-08T23:28:46.283Z,13.38
2023-02-08T23:31:43.258Z,12.60
2023-02-08T23:34:40.139Z,12.80
2023-02-08T23:37:37.340Z,13.25
2023-02-08T23:40:34.189Z,11.88
2023-02-08T23:43:32.316Z,11.32
2023-02-08T23:46:30.205Z,10.73
2023-02-08T23:49:27.069Z,11.70
2023-02-08T23:52:24.138Z,10.52
2023-02-08T23:55:20.957Z,10.85
2023-02-08T23:58:17.767Z,11.50
